Time;durP1;ratioP1;P1;durP2;ratioP2;P2;SDS_P1;SDS_P2;PMS_P1;PMS_P2;Temp;Humidity;BMP_temperature;BMP_pressure;BME280_temperature;BME280_humidity;BME280_pressure;Samples;Min_cycle;Max_cycle;Signal;HPM_P1;HPM_P2
2023/10/24 00:05:27;;;;;;;8.65;5.30;;;11.60;99.90;;;;;;5030058;28;20209;-90
2023/10/24 00:08:22;;;;;;;7.68;5.72;;;11.60;99.90;;;;;;5027099;28;20218;-90
2023/10/24 00:10:49;;;;;;;9.70;5.65;;;11.60;99.90;;;;;;5029787;28;20199;-88
2023/10/24 00:13:17;;;;;;;7.35;6.15;;;11.40;99.90;;;;;;5026186;28;20195;-90
2023/10/24 00:15:44;;;;;;;5.97;5.38;;;11.30;99.90;;;;;;5011523;28;20197;-90
2023/10/24 00:18:20;;;;;;;8.00;6.00;;;11.30;99.90;;;;;;5026738;28;20186;-90
2023/10/24 00:20:47;;;;;;;6.65;5.13;;;11.40;99.90;;;;;;5023132;28;20195;-90
2023/10/24 00:23:14;;;;;;;5.75;5.00;;;11.50;99.90;;;;;;5038201;28;20190;-89
2023/10/24 00:25:42;;;;;;;7.95;5.88;;;11.50;99.90;;;;;;5036323;28;20202;-90
2023/10/24 00:28:09;;;;;;;6.43;5.60;;;11.50;99.90;;;;;;5046090;28;20218;-89
2023/10/24 00:30:36;;;;;;;7.05;5.45;;;11.40;99.90;;;;;;5051837;28;20250;-89
2023/10/24 00:33:06;;;;;;;7.88;5.88;;;11.30;99.90;;;;;;5054100;28;20179;-88
2023/10/24 00:35:34;;;;;;;5.30;4.90;;;11.20;99.90;;;;;;5036811;28;20210;-89
2023/10/24 00:38:02;;;;;;;6.38;5.20;;;11.10;99.90;;;;;;5031947;28;20249;-89
2023/10/24 00:40:29;;;;;;;6.55;5.30;;;11.10;99.90;;;;;;5008613;28;20195;-89
2023/10/24 00:43:04;;;;;;;6.50;5.45;;;11.00;99.90;;;;;;5030550;28;20197;-89
2023/10/24 00:45:51;;;;;;;6.78;5.60;;;10.90;99.90;;;;;;5022602;28;20199;-89
2023/10/24 00:48:18;;;;;;;9.00;5.40;;;10.90;99.90;;;;;;5032185;28;20561;-90
2023/10/24 00:50:46;;;;;;;7.22;5.30;;;11.10;99.90;;;;;;5026098;28;20731;-89
2023/10/24 00:53:13;;;;;;;6.25;5.45;;;11.20;99.90;;;;;;5032946;28;20554;-90
2023/10/24 00:55:40;;;;;;;6.40;5.07;;;11.20;99.90;;;;;;5031445;28;20190;-89
2023/10/24 00:58:09;;;;;;;6.53;5.35;;;11.20;99.90;;;;;;5024476;28;20639;-90
2023/10/24 01:00:36;;;;;;;6.95;5.10;;;11.20;99.90;;;;;;5030362;28;20206;-90
2023/10/24 01:03:05;;;;;;;7.13;5.22;;;11.20;99.90;;;;;;5033935;28;20241;-89
2023/10/24 01:05:32;;;;;;;5.40;4.78;;;11.30;99.90;;;;;;5026155;28;20207;-90
2023/10/24 01:08:03;;;;;;;7.22;5.20;;;11.30;99.90;;;;;;5029055;28;20658;-88
2023/10/24 01:10:31;;;;;;;6.68;5.00;;;11.40;99.90;;;;;;5015053;28;20910;-90
2023/10/24 01:12:58;;;;;;;5.25;4.75;;;11.40;99.90;;;;;;5020124;28;20605;-89
2023/10/24 01:15:25;;;;;;;7.05;5.10;;;11.40;99.90;;;;;;5029034;28;20632;-89
2023/10/24 01:17:53;;;;;;;7.25;5.30;;;11.40;99.90;;;;;;5026396;28;20260;-89
2023/10/24 01:20:20;;;;;;;5.72;5.15;;;11.40;99.90;;;;;;5027418;28;20527;-89
2023/10/24 01:22:52;;;;;;;5.97;5.30;;;11.40;99.90;;;;;;5006352;28;20211;-89
2023/10/24 01:25:30;;;;;;;6.88;5.05;;;11.30;99.90;;;;;;5036593;28;20190;-89
2023/10/24 01:27:58;;;;;;;6.57;4.95;;;11.30;99.90;;;;;;5021506;28;20191;-89
2023/10/24 01:30:25;;;;;;;5.28;4.65;;;11.20;99.90;;;;;;5027491;28;20207;-89
2023/10/24 01:32:52;;;;;;;8.10;5.28;;;11.20;99.90;;;;;;5026954;28;20187;-90
2023/10/24 01:35:19;;;;;;;6.30;5.40;;;11.20;99.90;;;;;;5028550;28;20203;-89
2023/10/24 01:37:56;;;;;;;7.38;5.20;;;11.10;99.90;;;;;;5026245;28;20784;-90
2023/10/24 01:40:26;;;;;;;5.28;4.68;;;11.10;99.90;;;;;;5029457;28;20198;-89
2023/10/24 01:42:53;;;;;;;5.63;4.95;;;11.10;99.90;;;;;;5030839;28;20195;-89
2023/10/24 01:48:02;;;;;;;8.05;5.15;;;11.40;99.90;;;;;;5033518;28;20199;-90
2023/10/24 01:50:29;;;;;;;8.20;5.10;;;11.20;99.90;;;;;;5031436;28;20835;-90
2023/10/24 01:55:40;;;;;;;7.30;5.00;;;11.00;99.90;;;;;;5033246;28;20190;-89
2023/10/24 01:58:06;;;;;;;5.70;4.93;;;11.00;99.90;;;;;;5025054;28;20545;-90
2023/10/24 02:00:33;;;;;;;5.95;4.40;;;11.10;99.90;;;;;;5024070;28;20199;-90
2023/10/24 02:03:00;;;;;;;6.95;4.85;;;11.20;99.90;;;;;;5037318;28;20194;-89
2023/10/24 02:05:27;;;;;;;6.53;5.05;;;11.10;99.90;;;;;;5028164;28;20199;-89
2023/10/24 02:07:54;;;;;;;9.32;4.82;;;10.90;99.90;;;;;;5032719;28;20193;-89
2023/10/24 02:10:23;;;;;;;6.93;4.95;;;10.90;99.90;;;;;;5015892;28;20305;-89
2023/10/24 02:12:50;;;;;;;7.55;4.90;;;10.90;99.90;;;;;;5026691;28;20195;-90
2023/10/24 02:15:17;;;;;;;7.35;4.55;;;10.90;99.90;;;;;;5030531;28;20195;-90
2023/10/24 02:17:44;;;;;;;7.97;5.10;;;10.80;99.90;;;;;;5025623;28;20214;-89
2023/10/24 02:20:11;;;;;;;7.22;4.95;;;10.90;99.90;;;;;;5034176;28;20198;-89
2023/10/24 02:22:38;;;;;;;6.63;5.20;;;10.80;99.90;;;;;;5032162;28;20191;-90
2023/10/24 02:25:06;;;;;;;6.43;5.00;;;10.70;99.90;;;;;;5030260;28;20202;-89
2023/10/24 02:27:38;;;;;;;8.77;5.50;;;10.70;99.90;;;;;;5031716;28;20210;-90
2023/10/24 02:30:09;;;;;;;5.93;5.07;;;10.60;99.90;;;;;;5028781;28;20221;-89
2023/10/24 02:32:35;;;;;;;5.72;4.88;;;10.50;99.90;;;;;;5026123;28;20199;-89
2023/10/24 02:35:02;;;;;;;6.70;4.97;;;10.50;99.90;;;;;;5030223;28;20205;-89
2023/10/24 02:37:29;;;;;;;5.88;5.10;;;10.50;99.90;;;;;;5028477;28;20198;-90
2023/10/24 02:39:57;;;;;;;7.35;4.95;;;10.50;99.90;;;;;;5029463;28;20187;-89
2023/10/24 02:42:24;;;;;;;7.45;5.30;;;10.40;99.90;;;;;;5028162;28;20201;-90
2023/10/24 02:44:52;;;;;;;8.05;4.85;;;10.60;99.90;;;;;;5032570;28;20205;-90
2023/10/24 02:47:19;;;;;;;7.10;5.20;;;10.50;99.90;;;;;;5031133;28;20206;-90
2023/10/24 02:49:46;;;;;;;8.02;5.28;;;10.50;99.90;;;;;;5025299;28;20226;-90
2023/10/24 02:52:13;;;;;;;6.70;5.30;;;10.30;99.90;;;;;;5030917;28;20214;-90
2023/10/24 02:54:40;;;;;;;6.30;5.35;;;10.30;99.90;;;;;;4997491;28;20327;-90
2023/10/24 02:57:07;;;;;;;6.25;4.75;;;10.40;99.90;;;;;;5030723;28;20199;-90
2023/10/24 02:59:34;;;;;;;6.80;4.32;;;10.30;99.90;;;;;;5028089;28;20567;-90
2023/10/24 03:02:03;;;;;;;7.07;5.05;;;10.30;99.90;;;;;;5026515;28;20798;-90
2023/10/24 03:04:30;;;;;;;5.82;4.90;;;10.20;99.90;;;;;;5028238;28;20233;-90
2023/10/24 03:06:57;;;;;;;5.85;5.00;;;10.20;99.90;;;;;;5029376;28;20321;-90
2023/10/24 03:09:24;;;;;;;5.78;4.65;;;10.10;99.90;;;;;;5034337;28;20226;-90
2023/10/24 03:11:51;;;;;;;6.43;4.70;;;10.00;99.90;;;;;;5033762;28;20213;-90
2023/10/24 03:14:18;;;;;;;6.93;5.60;;;10.00;99.90;;;;;;5025387;28;20642;-90
2023/10/24 03:16:45;;;;;;;6.60;4.60;;;10.10;99.90;;;;;;5028251;28;20206;-89
2023/10/24 03:21:54;;;;;;;6.40;4.88;;;10.10;99.90;;;;;;5020922;28;20203;-90
2023/10/24 03:24:20;;;;;;;7.25;4.68;;;10.00;99.90;;;;;;5029281;28;20565;-89
2023/10/24 03:26:47;;;;;;;5.65;5.07;;;9.90;99.90;;;;;;5030353;28;20194;-90
2023/10/24 03:29:14;;;;;;;5.30;4.80;;;9.80;99.90;;;;;;5029637;28;20223;-89
2023/10/24 03:31:41;;;;;;;7.38;5.05;;;9.80;99.90;;;;;;5031721;28;20194;-89
2023/10/24 03:34:08;;;;;;;6.22;4.65;;;10.00;99.90;;;;;;5024988;28;20556;-90
2023/10/24 03:36:37;;;;;;;6.82;4.68;;;10.20;99.90;;;;;;5030206;28;20195;-90
2023/10/24 03:39:05;;;;;;;7.38;5.03;;;10.30;99.90;;;;;;5013485;28;20191;-89
2023/10/24 03:41:32;;;;;;;6.60;4.80;;;10.10;99.90;;;;;;5029015;28;20547;-89
2023/10/24 03:43:59;;;;;;;6.15;5.28;;;10.00;99.90;;;;;;5037366;28;20201;-90
2023/10/24 03:46:26;;;;;;;6.10;5.00;;;9.90;99.90;;;;;;5047932;28;20196;-90
2023/10/24 03:48:53;;;;;;;7.40;4.45;;;9.90;99.90;;;;;;5045203;28;20202;-90
2023/10/24 03:56:44;;;;;;;5.95;4.60;;;9.80;99.90;;;;;;5034261;28;20195;-90
2023/10/24 03:59:11;;;;;;;5.20;4.63;;;9.80;99.90;;;;;;5028395;28;20285;-89
2023/10/24 04:01:38;;;;;;;7.18;5.07;;;9.90;99.90;;;;;;5025983;28;20198;-89
2023/10/24 04:04:05;;;;;;;6.00;4.45;;;10.00;99.90;;;;;;5027934;28;20663;-89
2023/10/24 04:06:34;;;;;;;5.97;4.55;;;10.10;99.90;;;;;;5026954;28;20656;-90
2023/10/24 04:09:04;;;;;;;5.75;4.30;;;10.20;99.90;;;;;;5031376;28;20816;-90
2023/10/24 04:11:32;;;;;;;7.15;5.13;;;10.20;99.90;;;;;;5033676;28;20256;-90
2023/10/24 04:13:59;;;;;;;5.57;4.90;;;10.00;99.90;;;;;;5032788;28;20268;-89
2023/10/24 04:16:27;;;;;;;6.93;4.50;;;9.90;99.90;;;;;;5025928;28;20658;-89
2023/10/24 04:18:54;;;;;;;6.53;4.55;;;9.80;99.90;;;;;;5027636;28;20201;-90
2023/10/24 04:21:21;;;;;;;5.38;4.53;;;9.80;99.90;;;;;;5028977;28;20199;-90
2023/10/24 04:23:47;;;;;;;6.38;4.50;;;9.90;99.90;;;;;;5026936;28;20210;-91
2023/10/24 04:26:23;;;;;;;7.25;4.82;;;9.90;99.90;;;;;;5027823;28;20277;-90
2023/10/24 04:28:52;;;;;;;5.65;4.60;;;9.80;99.90;;;;;;5023807;28;20206;-91
2023/10/24 04:31:19;;;;;;;5.60;4.50;;;9.80;99.90;;;;;;5032339;28;20195;-90
2023/10/24 04:33:46;;;;;;;5.90;4.50;;;9.80;99.90;;;;;;5027691;28;20194;-91
2023/10/24 04:36:14;;;;;;;6.32;4.45;;;9.80;99.90;;;;;;5015951;28;20198;-91
2023/10/24 04:38:41;;;;;;;6.18;4.32;;;9.80;99.90;;;;;;5029512;28;20967;-89
2023/10/24 04:41:08;;;;;;;5.88;4.22;;;9.80;99.90;;;;;;5024199;28;20214;-91
2023/10/24 04:43:36;;;;;;;8.90;4.40;;;9.90;99.90;;;;;;5027488;28;20568;-92
2023/10/24 04:46:03;;;;;;;7.20;3.70;;;10.00;99.90;;;;;;5028698;28;20214;-92
2023/10/24 04:48:30;;;;;;;8.45;4.30;;;10.10;99.90;;;;;;5032256;28;20198;-92
2023/10/24 04:50:57;;;;;;;9.05;4.10;;;10.00;99.90;;;;;;5030478;28;20232;-92
2023/10/24 04:53:24;;;;;;;8.70;4.10;;;9.90;99.90;;;;;;5030053;28;20194;-92
2023/10/24 04:55:51;;;;;;;4.50;3.78;;;9.80;99.90;;;;;;5031061;28;20206;-92
2023/10/24 04:58:18;;;;;;;7.95;4.05;;;9.80;99.90;;;;;;5033161;28;20878;-92
2023/10/24 05:00:47;;;;;;;7.32;4.03;;;9.90;99.90;;;;;;5026109;28;20229;-92
2023/10/24 05:03:14;;;;;;;5.38;4.03;;;9.90;99.90;;;;;;5029580;28;20195;-92
2023/10/24 05:05:41;;;;;;;7.90;4.32;;;9.90;99.90;;;;;;5028188;28;20199;-95
2023/10/24 05:08:15;;;;;;;7.03;4.00;;;9.80;99.90;;;;;;5037711;28;20203;-94
2023/10/24 05:13:23;;;;;;;5.30;4.00;;;9.90;99.90;;;;;;5013729;28;20206;-92
2023/10/24 05:18:35;;;;;;;10.52;5.18;;;9.90;99.90;;;;;;5032593;28;20467;-91
2023/10/24 05:21:03;;;;;;;7.95;4.40;;;9.80;99.90;;;;;;5027103;28;20206;-94
2023/10/24 05:23:30;;;;;;;7.57;5.00;;;9.90;99.90;;;;;;5034196;28;20707;-89
2023/10/24 05:25:57;;;;;;;10.00;5.00;;;10.00;99.90;;;;;;5033785;28;20301;-87
2023/10/24 05:28:27;;;;;;;6.72;4.72;;;9.90;99.90;;;;;;5032442;28;20194;-93
2023/10/24 05:33:39;;;;;;;8.90;5.00;;;10.00;99.90;;;;;;5029529;28;20199;-90
2023/10/24 05:36:06;;;;;;;8.60;4.88;;;9.90;99.90;;;;;;5031708;28;20195;-91
2023/10/24 05:38:33;;;;;;;5.22;4.50;;;10.00;99.90;;;;;;5031114;28;20307;-90
2023/10/24 05:41:00;;;;;;;9.55;4.78;;;10.00;99.90;;;;;;5033635;28;20194;-90
2023/10/24 05:43:27;;;;;;;10.20;4.90;;;10.00;99.90;;;;;;5034472;28;20202;-90
2023/10/24 05:45:55;;;;;;;10.32;5.03;;;10.10;99.90;;;;;;5031625;28;20200;-90
2023/10/24 05:48:22;;;;;;;8.85;4.40;;;10.10;99.90;;;;;;5034394;28;20242;-90
2023/10/24 05:50:49;;;;;;;10.30;4.72;;;10.40;99.90;;;;;;5032666;28;20234;-90
2023/10/24 05:53:16;;;;;;;10.10;5.07;;;10.50;99.90;;;;;;5027476;28;20209;-90
2023/10/24 05:55:43;;;;;;;10.10;5.05;;;10.70;99.90;;;;;;5023034;28;20254;-90
2023/10/24 05:58:10;;;;;;;12.00;4.97;;;10.60;99.90;;;;;;5030555;28;20201;-90
2023/10/24 06:00:37;;;;;;;7.25;4.88;;;10.50;99.90;;;;;;5028190;28;20210;-90
2023/10/24 06:03:12;;;;;;;7.45;4.90;;;10.50;99.90;;;;;;5033712;28;20190;-90
2023/10/24 06:05:40;;;;;;;7.55;4.97;;;10.40;99.90;;;;;;5034464;28;20197;-90
2023/10/24 06:08:07;;;;;;;10.23;4.85;;;10.40;99.90;;;;;;5029995;28;20210;-90
2023/10/24 06:10:34;;;;;;;7.03;4.75;;;10.50;99.90;;;;;;5035970;28;20229;-90
2023/10/24 06:15:52;;;;;;;10.55;4.65;;;10.60;99.90;;;;;;5020206;28;20199;-90
2023/10/24 06:21:04;;;;;;;10.43;4.20;;;10.90;99.90;;;;;;5032589;28;20206;-90
2023/10/24 06:26:14;;;;;;;10.15;4.93;;;11.10;99.90;;;;;;5030904;28;20297;-90
2023/10/24 06:28:41;;;;;;;9.10;4.60;;;11.20;99.90;;;;;;5037051;28;20947;-90
2023/10/24 06:31:09;;;;;;;13.55;5.00;;;11.10;99.90;;;;;;5032816;28;20222;-90
2023/10/24 06:33:45;;;;;;;9.45;4.57;;;10.90;99.90;;;;;;5035605;28;20202;-90
2023/10/24 06:36:14;;;;;;;13.25;4.55;;;10.80;99.90;;;;;;5029877;28;20200;-90
2023/10/24 06:38:42;;;;;;;16.65;5.40;;;10.70;99.90;;;;;;5025709;28;20276;-90
2023/10/24 06:41:09;;;;;;;10.35;4.43;;;10.70;99.90;;;;;;5034844;28;21653;-90
2023/10/24 06:43:36;;;;;;;13.38;4.95;;;10.90;99.90;;;;;;5034981;28;20197;-90
2023/10/24 06:48:49;;;;;;;6.88;4.30;;;11.30;99.90;;;;;;5033496;28;20227;-90
2023/10/24 06:51:16;;;;;;;7.63;4.45;;;11.50;99.90;;;;;;5023480;28;20234;-90
2023/10/24 06:53:43;;;;;;;11.90;4.38;;;11.60;99.90;;;;;;5031526;28;20195;-90
2023/10/24 06:56:10;;;;;;;16.77;4.68;;;11.60;99.90;;;;;;5029717;28;20255;-90
2023/10/24 06:58:40;;;;;;;10.50;4.85;;;11.60;99.90;;;;;;5036867;28;20199;-90
2023/10/24 07:01:07;;;;;;;21.05;5.65;;;11.60;99.90;;;;;;5051978;28;20195;-90
2023/10/24 07:03:34;;;;;;;9.00;5.20;;;11.50;99.90;;;;;;5053814;28;20183;-90
2023/10/24 07:06:05;;;;;;;9.68;4.25;;;11.40;99.90;;;;;;5041778;28;20191;-90
2023/10/24 07:08:34;;;;;;;12.75;4.57;;;11.50;99.90;;;;;;5039702;28;20252;-90
2023/10/24 07:11:01;;;;;;;9.43;4.25;;;11.50;99.90;;;;;;5029156;28;20230;-90
2023/10/24 07:13:29;;;;;;;10.50;4.63;;;11.50;99.90;;;;;;5031762;28;20202;-90
2023/10/24 07:15:55;;;;;;;7.20;4.82;;;11.60;99.90;;;;;;5031533;28;20245;-90
2023/10/24 07:18:22;;;;;;;15.43;5.40;;;11.60;99.90;;;;;;5033506;28;20256;-90
2023/10/24 07:20:49;;;;;;;10.55;5.45;;;11.50;99.90;;;;;;5029736;28;20195;-90
2023/10/24 07:23:19;;;;;;;9.52;5.15;;;11.50;99.90;;;;;;5027779;28;20865;-90
2023/10/24 07:25:45;;;;;;;18.27;5.07;;;11.50;99.90;;;;;;5032011;28;20249;-90
2023/10/24 07:28:13;;;;;;;15.43;5.28;;;11.60;99.90;;;;;;5032017;28;20203;-90
2023/10/24 07:30:40;;;;;;;6.72;4.55;;;11.60;99.90;;;;;;5027444;28;20272;-90
2023/10/24 07:33:07;;;;;;;8.38;4.15;;;11.70;99.90;;;;;;5031689;28;20554;-90
2023/10/24 07:35:33;;;;;;;12.88;4.57;;;11.90;99.90;;;;;;5034247;28;20198;-91
2023/10/24 07:38:00;;;;;;;17.20;4.90;;;11.90;99.90;;;;;;5034525;28;20249;-90
2023/10/24 07:40:29;;;;;;;19.25;4.63;;;11.90;99.90;;;;;;5036828;28;20195;-90
2023/10/24 07:42:56;;;;;;;12.57;4.30;;;11.90;99.90;;;;;;5029691;28;20210;-89
2023/10/24 07:45:23;;;;;;;10.70;5.00;;;12.00;99.90;;;;;;5032063;28;20199;-90
2023/10/24 07:47:53;;;;;;;11.77;5.30;;;12.10;99.90;;;;;;5035790;28;20210;-90
2023/10/24 07:50:21;;;;;;;9.48;7.10;;;12.20;99.90;;;;;;5021298;28;20214;-90
2023/10/24 07:52:48;;;;;;;11.75;7.55;;;12.20;99.90;;;;;;5031478;28;20543;-90
2023/10/24 07:55:15;;;;;;;12.80;7.13;;;12.20;99.90;;;;;;5013301;28;20539;-90
2023/10/24 08:00:24;;;;;;;16.67;7.63;;;12.40;99.90;;;;;;5024291;28;20248;-90
2023/10/24 08:02:51;;;;;;;15.20;8.52;;;12.40;99.90;;;;;;5029722;28;20193;-90
2023/10/24 08:05:18;;;;;;;9.00;7.90;;;12.50;99.90;;;;;;5011205;28;20613;-90
2023/10/24 08:07:45;;;;;;;16.00;8.32;;;12.50;99.90;;;;;;5009554;28;20190;-90
2023/10/24 08:10:12;;;;;;;13.23;7.97;;;12.60;99.90;;;;;;5030326;28;20190;-89
2023/10/24 08:12:39;;;;;;;13.50;7.82;;;12.60;99.90;;;;;;5031636;28;20205;-90
2023/10/24 08:15:08;;;;;;;15.50;8.32;;;12.50;99.90;;;;;;5033151;28;20190;-90
2023/10/24 08:17:35;;;;;;;16.40;7.80;;;12.50;99.90;;;;;;5026271;28;20741;-90
2023/10/24 08:22:43;;;;;;;9.63;7.43;;;12.40;99.90;;;;;;5025264;28;20317;-90
2023/10/24 08:25:10;;;;;;;18.02;8.18;;;12.30;99.90;;;;;;5028200;28;20211;-90
2023/10/24 08:27:37;;;;;;;11.70;7.40;;;12.30;99.90;;;;;;5026011;28;20190;-90
2023/10/24 08:30:06;;;;;;;13.55;7.50;;;12.20;99.90;;;;;;5029100;28;20281;-90
2023/10/24 08:35:15;;;;;;;11.18;7.75;;;12.40;99.90;;;;;;5025874;28;20215;-90
2023/10/24 08:37:42;;;;;;;18.02;8.32;;;12.40;99.90;;;;;;5023525;28;20200;-90
2023/10/24 08:40:09;;;;;;;17.25;9.25;;;12.30;99.90;;;;;;5036121;28;20202;-90
2023/10/24 08:42:37;;;;;;;10.73;7.60;;;12.30;99.90;;;;;;5029941;28;20213;-90
2023/10/24 08:45:05;;;;;;;11.82;7.35;;;12.30;99.90;;;;;;5032734;28;20195;-90
2023/10/24 08:50:19;;;;;;;17.58;8.05;;;12.60;99.90;;;;;;5033102;28;20206;-90
2023/10/24 08:52:46;;;;;;;16.35;8.07;;;12.50;99.90;;;;;;5035531;28;20217;-90
2023/10/24 08:55:13;;;;;;;14.05;7.60;;;12.40;99.90;;;;;;5034504;28;20201;-90
2023/10/24 08:57:41;;;;;;;13.05;7.32;;;12.40;99.90;;;;;;5036238;28;20552;-90
2023/10/24 09:02:53;;;;;;;14.60;8.20;;;12.50;99.90;;;;;;5034879;28;20197;-90
2023/10/24 09:05:20;;;;;;;11.77;8.43;;;12.70;99.90;;;;;;5033826;28;20249;-90
2023/10/24 09:07:48;;;;;;;14.50;8.70;;;12.50;99.90;;;;;;5038551;28;20201;-90
2023/10/24 09:10:15;;;;;;;12.52;8.20;;;12.40;99.90;;;;;;5031835;28;20190;-90
2023/10/24 09:12:43;;;;;;;10.77;8.32;;;12.50;99.90;;;;;;5035615;28;20206;-90
2023/10/24 09:15:10;;;;;;;15.68;8.93;;;12.40;99.90;;;;;;5032594;28;20194;-90
2023/10/24 09:17:37;;;;;;;14.30;9.02;;;12.30;99.90;;;;;;5037470;28;20199;-90
2023/10/24 09:23:16;;;;;;;12.30;9.25;;;12.40;99.90;;;;;;5023117;28;20195;-90
2023/10/24 09:25:43;;;;;;;10.63;9.52;;;12.50;99.90;;;;;;5029344;28;20321;-91
2023/10/24 09:28:17;;;;;;;11.18;8.90;;;12.60;99.90;;;;;;5032806;28;20206;-90
2023/10/24 09:30:44;;;;;;;10.18;9.18;;;12.40;99.90;;;;;;5034330;28;20228;-91
2023/10/24 09:33:12;;;;;;;14.60;9.20;;;12.30;99.90;;;;;;5035087;28;20543;-90
2023/10/24 09:35:42;;;;;;;10.43;9.35;;;12.40;99.90;;;;;;5036677;28;20194;-91
2023/10/24 09:38:09;;;;;;;14.23;8.95;;;12.40;99.90;;;;;;5032717;28;20209;-90
2023/10/24 09:40:37;;;;;;;10.90;9.15;;;12.40;99.90;;;;;;5034037;28;20202;-90
2023/10/24 09:43:11;;;;;;;10.73;9.48;;;12.40;99.90;;;;;;5032630;28;20194;-90
2023/10/24 09:45:41;;;;;;;10.68;8.52;;;12.30;99.90;;;;;;5031516;28;20193;-90
2023/10/24 09:48:09;;;;;;;10.35;8.77;;;12.30;99.90;;;;;;5012617;28;20187;-90
2023/10/24 09:53:21;;;;;;;10.68;8.88;;;12.30;99.90;;;;;;5027719;28;20198;-91
2023/10/24 09:55:49;;;;;;;9.50;8.52;;;12.20;99.90;;;;;;5026665;28;20317;-90
2023/10/24 10:00:58;;;;;;;13.98;8.68;;;12.20;99.90;;;;;;5027787;28;20293;-90
2023/10/24 10:03:26;;;;;;;12.00;8.90;;;12.10;99.90;;;;;;5033667;28;20546;-90
2023/10/24 10:11:26;;;;;;;12.05;8.60;;;12.20;99.90;;;;;;5035392;28;20284;-90
2023/10/24 10:13:56;;;;;;;12.07;8.80;;;12.20;99.90;;;;;;5021672;28;20213;-90
2023/10/24 10:16:40;;;;;;;12.68;9.02;;;12.20;99.90;;;;;;5050533;28;20674;-90
2023/10/24 10:19:24;;;;;;;13.85;9.23;;;12.20;99.90;;;;;;5049579;28;20229;-90
2023/10/24 10:22:09;;;;;;;9.65;8.60;;;12.20;99.90;;;;;;5028561;28;20278;-90
2023/10/24 10:25:17;;;;;;;13.02;8.57;;;12.20;99.90;;;;;;5030967;28;20704;-90
2023/10/24 10:27:55;;;;;;;14.93;10.07;;;12.30;99.90;;;;;;5032021;28;20583;-90
2023/10/24 10:33:13;;;;;;;15.90;10.25;;;12.30;99.90;;;;;;5027138;28;20288;-90
2023/10/24 10:35:47;;;;;;;13.32;10.15;;;12.30;99.90;;;;;;5030678;28;20202;-90
2023/10/24 10:38:47;;;;;;;14.13;10.77;;;12.30;99.90;;;;;;5029128;28;20199;-90
2023/10/24 10:41:38;;;;;;;12.65;9.82;;;12.30;99.90;;;;;;5028668;28;20237;-90
2023/10/24 10:44:42;;;;;;;14.02;10.65;;;12.30;99.90;;;;;;5016401;28;20190;-90
2023/10/24 10:47:12;;;;;;;13.10;10.45;;;12.30;99.90;;;;;;5028272;28;20252;-90
2023/10/24 10:49:44;;;;;;;14.40;10.82;;;12.50;99.90;;;;;;5031647;28;20202;-90
2023/10/24 10:52:33;;;;;;;15.13;11.68;;;12.40;99.90;;;;;;5031113;28;20260;-90
2023/10/24 11:00:58;;;;;;;17.58;13.50;;;12.20;99.90;;;;;;5032433;28;20201;-90
2023/10/24 11:03:39;;;;;;;14.52;13.02;;;12.20;99.90;;;;;;5032690;28;20796;-90
2023/10/24 11:06:12;;;;;;;15.80;13.52;;;12.20;99.90;;;;;;5032952;28;20191;-90
2023/10/24 11:09:10;;;;;;;16.38;12.57;;;12.20;99.90;;;;;;5031770;28;20207;-90
2023/10/24 11:14:25;;;;;;;14.52;13.05;;;12.40;99.90;;;;;;5030251;28;20190;-90
2023/10/24 11:16:53;;;;;;;17.75;13.70;;;12.30;99.90;;;;;;5031576;28;20297;-90
2023/10/24 11:19:20;;;;;;;17.70;14.15;;;12.20;99.90;;;;;;5032573;28;20272;-90
2023/10/24 11:21:48;;;;;;;17.52;14.07;;;12.20;99.90;;;;;;5022449;28;20205;-90
2023/10/24 11:24:20;;;;;;;17.30;14.40;;;12.20;99.90;;;;;;5028674;28;20548;-90
2023/10/24 11:26:48;;;;;;;21.35;14.23;;;12.20;99.90;;;;;;5023213;28;20245;-91
2023/10/24 11:29:16;;;;;;;18.88;13.90;;;12.20;99.90;;;;;;5030879;28;20201;-90
2023/10/24 11:31:44;;;;;;;15.52;13.82;;;12.20;99.90;;;;;;5029897;28;20219;-90
2023/10/24 11:34:31;;;;;;;18.65;14.40;;;12.20;99.90;;;;;;5031467;28;20199;-90
2023/10/24 11:36:58;;;;;;;16.77;14.15;;;12.30;99.90;;;;;;4999671;28;20202;-90
2023/10/24 11:39:25;;;;;;;19.23;14.63;;;12.30;99.90;;;;;;5030273;28;20578;-90
2023/10/24 11:41:53;;;;;;;19.85;14.32;;;12.30;99.90;;;;;;5032347;28;20190;-90
2023/10/24 11:44:22;;;;;;;16.52;14.25;;;12.30;99.90;;;;;;5017152;28;20202;-90
2023/10/24 11:46:49;;;;;;;19.73;13.95;;;12.30;99.90;;;;;;5034137;28;20202;-90
2023/10/24 11:49:16;;;;;;;20.38;14.00;;;12.30;99.90;;;;;;5031812;28;20217;-90
2023/10/24 11:51:43;;;;;;;18.15;13.77;;;12.30;99.90;;;;;;5010802;28;20222;-90
2023/10/24 11:54:12;;;;;;;20.00;13.98;;;12.50;99.90;;;;;;5027768;28;20198;-90
2023/10/24 11:56:40;;;;;;;14.55;12.90;;;12.50;99.90;;;;;;5030736;28;20662;-90
2023/10/24 12:01:57;;;;;;;16.48;13.38;;;12.70;99.90;;;;;;5028148;28;20209;-90
2023/10/24 12:04:27;;;;;;;16.05;13.70;;;12.80;99.90;;;;;;5030712;28;20202;-90
2023/10/24 12:07:02;;;;;;;19.05;14.52;;;12.80;99.90;;;;;;5014904;28;20190;-90
2023/10/24 12:09:33;;;;;;;16.33;13.93;;;12.70;99.90;;;;;;5029145;28;20205;-90
2023/10/24 12:12:01;;;;;;;19.65;15.23;;;12.80;99.90;;;;;;5030119;28;20328;-91
2023/10/24 12:14:30;;;;;;;20.95;14.32;;;12.90;99.90;;;;;;5026859;28;20205;-90
2023/10/24 12:16:58;;;;;;;18.85;14.10;;;13.00;99.90;;;;;;5014353;28;20206;-90
2023/10/24 12:19:25;;;;;;;20.48;14.57;;;12.90;99.90;;;;;;5013855;28;20539;-90
2023/10/24 12:21:52;;;;;;;20.92;17.25;;;12.90;99.90;;;;;;5027717;28;20333;-90
2023/10/24 12:24:21;;;;;;;19.98;16.77;;;12.80;99.90;;;;;;5029326;28;20209;-91
2023/10/24 12:27:08;;;;;;;19.35;17.20;;;12.80;99.90;;;;;;5029969;28;20191;-91
2023/10/24 12:29:37;;;;;;;19.25;17.27;;;12.90;99.90;;;;;;5013435;28;20198;-91
2023/10/24 12:32:05;;;;;;;20.25;17.58;;;13.00;99.90;;;;;;5029878;28;20211;-91
2023/10/24 12:34:32;;;;;;;22.38;19.35;;;13.10;99.90;;;;;;5014083;28;20194;-90
2023/10/24 12:37:02;;;;;;;22.38;19.35;;;13.20;99.90;;;;;;5026723;28;20238;-91
2023/10/24 12:39:29;;;;;;;25.52;21.63;;;13.10;99.90;;;;;;5033807;28;20206;-90
2023/10/24 12:41:55;;;;;;;26.33;21.45;;;13.10;99.90;;;;;;5027279;28;20202;-90
2023/10/24 12:44:22;;;;;;;29.02;21.33;;;13.10;99.90;;;;;;5028724;28;20213;-90
2023/10/24 12:49:31;;;;;;;22.67;20.33;;;13.00;99.90;;;;;;5028510;28;20199;-91
2023/10/24 12:51:58;;;;;;;25.48;20.80;;;13.00;99.90;;;;;;5029746;28;20214;-90
2023/10/24 12:54:26;;;;;;;21.42;18.90;;;13.00;99.90;;;;;;5028283;28;20224;-90
2023/10/24 12:56:53;;;;;;;24.92;19.88;;;13.00;99.90;;;;;;5028331;28;20631;-91
2023/10/24 12:59:20;;;;;;;20.85;18.52;;;13.00;99.90;;;;;;5008665;28;20643;-90
2023/10/24 13:01:49;;;;;;;23.05;18.15;;;13.10;99.90;;;;;;5032608;28;20236;-90
2023/10/24 13:04:19;;;;;;;26.13;19.08;;;13.00;99.90;;;;;;5033660;28;20194;-91
2023/10/24 13:07:06;;;;;;;18.90;16.90;;;13.00;99.90;;;;;;5037294;28;20197;-91
2023/10/24 13:09:36;;;;;;;19.85;16.92;;;12.90;99.90;;;;;;5028787;28;20198;-89
2023/10/24 13:15:08;;;;;;;23.63;17.45;;;12.80;99.90;;;;;;5019482;28;20249;-90
2023/10/24 13:17:37;;;;;;;21.02;18.80;;;12.90;99.90;;;;;;5028639;28;20203;-90
2023/10/24 13:20:17;;;;;;;19.45;17.38;;;12.70;99.90;;;;;;5026693;28;20222;-91
2023/10/24 13:22:44;;;;;;;21.25;18.38;;;12.60;99.90;;;;;;5024654;28;20562;-90
2023/10/24 13:25:13;;;;;;;21.13;18.95;;;12.70;99.90;;;;;;5028638;28;20205;-89
2023/10/24 13:27:40;;;;;;;21.65;19.15;;;12.60;99.90;;;;;;5026765;28;20553;-90
2023/10/24 13:30:08;;;;;;;23.95;19.58;;;12.60;99.90;;;;;;5029093;28;20205;-89
2023/10/24 13:32:35;;;;;;;26.13;20.75;;;12.60;99.90;;;;;;5039143;28;20237;-91
2023/10/24 13:35:02;;;;;;;20.90;18.73;;;12.60;99.90;;;;;;5052890;28;20633;-90
2023/10/24 13:37:30;;;;;;;24.13;20.17;;;12.60;99.90;;;;;;5036095;28;20199;-91
2023/10/24 13:42:38;;;;;;;27.92;19.52;;;12.50;99.90;;;;;;5027922;28;20206;-90
2023/10/24 13:45:06;;;;;;;24.05;19.50;;;12.60;99.90;;;;;;5033132;28;20193;-90
2023/10/24 13:47:33;;;;;;;20.73;18.42;;;12.50;99.90;;;;;;5031775;28;20256;-90
2023/10/24 13:50:00;;;;;;;21.48;18.98;;;12.50;99.90;;;;;;5030876;28;20194;-88
2023/10/24 13:52:30;;;;;;;21.85;18.02;;;12.60;99.90;;;;;;5031761;28;20226;-89
2023/10/24 13:54:58;;;;;;;21.13;18.10;;;12.60;99.90;;;;;;5031967;28;20254;-88
2023/10/24 13:57:25;;;;;;;18.80;16.88;;;12.60;99.90;;;;;;5034351;28;20240;-89
2023/10/24 13:59:52;;;;;;;18.85;16.52;;;12.60;99.90;;;;;;5035164;28;20201;-89
2023/10/24 14:02:19;;;;;;;17.70;15.70;;;12.70;99.90;;;;;;5026962;28;20233;-91
2023/10/24 14:04:46;;;;;;;18.77;16.77;;;12.70;99.90;;;;;;5048794;28;20198;-91
2023/10/24 14:07:13;;;;;;;18.70;16.70;;;12.70;99.90;;;;;;5034948;28;20200;-91
2023/10/24 14:09:40;;;;;;;17.92;15.35;;;12.70;99.90;;;;;;5028411;28;20214;-91
2023/10/24 14:12:09;;;;;;;17.13;15.02;;;12.70;99.90;;;;;;5034954;28;20502;-91
2023/10/24 14:14:36;;;;;;;16.13;14.43;;;12.70;99.90;;;;;;5014919;28;20264;-91
2023/10/24 14:17:04;;;;;;;20.58;15.38;;;12.80;99.90;;;;;;5030168;28;20217;-90